Time;durP1;ratioP1;P1;durP2;ratioP2;P2;SDS_P1;SDS_P2;PMS_P1;PMS_P2;Temp;Humidity;BMP_temperature;BMP_pressure;BME280_temperature;BME280_humidity;BME280_pressure;Samples;Min_cycle;Max_cycle;Signal;HPM_P1;HPM_P2
2023/04/26 00:02:21;;;;;;;6.47;3.50;;;;;;;7.80;78.02;99508.22;5011900;28;20211;-61
2023/04/26 00:04:54;;;;;;;4.67;3.50;;;;;;;7.84;77.34;99513.34;5012383;28;20274;-61
2023/04/26 00:07:24;;;;;;;5.03;3.00;;;;;;;7.81;77.58;99520.22;5010517;28;20207;-67
2023/04/26 00:09:52;;;;;;;5.17;3.10;;;;;;;7.79;77.93;99516.78;5013668;28;20215;-62
2023/04/26 00:12:22;;;;;;;5.33;2.70;;;;;;;7.81;78.23;99517.66;5014347;28;20593;-63
2023/04/26 00:14:49;;;;;;;4.30;2.30;;;;;;;7.80;77.26;99523.63;5013831;28;20199;-64
2023/04/26 00:17:17;;;;;;;5.33;3.53;;;;;;;7.79;77.78;99527.06;5009982;28;20857;-61
2023/04/26 00:19:45;;;;;;;4.57;2.20;;;;;;;7.74;77.28;99535.63;5013280;28;20239;-62
2023/04/26 00:22:14;;;;;;;2.40;1.73;;;;;;;7.69;76.50;99545.06;5010675;28;20251;-61
2023/04/26 00:24:42;;;;;;;3.60;1.63;;;;;;;7.63;77.68;99536.59;5011864;28;20684;-60
2023/04/26 00:27:11;;;;;;;2.10;1.70;;;;;;;7.57;77.91;99552.84;5013075;28;20208;-61
2023/04/26 00:29:40;;;;;;;2.27;1.70;;;;;;;7.53;77.91;99545.22;5013811;28;20671;-61
2023/04/26 00:32:08;;;;;;;1.57;1.47;;;;;;;7.46;77.89;99546.97;5011806;28;20196;-65
2023/04/26 00:34:37;;;;;;;2.70;1.70;;;;;;;7.42;77.80;99552.97;5005989;28;20199;-62
2023/04/26 00:37:06;;;;;;;2.00;1.87;;;;;;;7.43;78.05;99564.91;5010219;28;20204;-61
2023/04/26 00:39:33;;;;;;;1.33;1.23;;;;;;;7.43;77.71;99564.91;5011206;28;20211;-64
2023/04/26 00:42:01;;;;;;;3.60;1.63;;;;;;;7.38;77.61;99564.09;5010803;28;20199;-62
2023/04/26 00:44:29;;;;;;;4.40;1.40;;;;;;;7.39;77.17;99558.13;5011427;28;20216;-62
2023/04/26 00:46:59;;;;;;;4.33;1.80;;;;;;;7.38;77.16;99567.53;5010977;28;20265;-65
2023/04/26 00:49:28;;;;;;;1.77;1.60;;;;;;;7.37;77.72;99559.84;5011639;28;20203;-61
2023/04/26 00:51:56;;;;;;;2.10;1.20;;;;;;;7.40;76.83;99570.06;5009755;28;20615;-69
2023/04/26 00:54:25;;;;;;;1.80;1.63;;;;;;;7.39;76.29;99563.25;5012038;28;20254;-60
2023/04/26 00:56:54;;;;;;;2.53;1.77;;;;;;;7.39;76.58;99576.06;5011394;28;20219;-61
2023/04/26 00:59:22;;;;;;;2.73;1.60;;;;;;;7.36;76.76;99578.63;5011967;28;20219;-64
2023/04/26 01:01:49;;;;;;;3.03;1.70;;;;;;;7.36;76.92;99573.50;5008527;28;20546;-61
2023/04/26 01:04:19;;;;;;;2.83;1.83;;;;;;;7.37;76.40;99582.91;5012623;28;20246;-61
2023/04/26 01:06:48;;;;;;;1.50;1.40;;;;;;;7.35;77.38;99580.34;5010824;28;20245;-64
2023/04/26 01:09:18;;;;;;;1.70;1.60;;;;;;;7.29;76.87;99584.66;5009173;28;20238;-60
2023/04/26 01:11:46;;;;;;;1.97;1.80;;;;;;;7.26;77.32;99580.41;5007871;28;20203;-62
2023/04/26 01:14:15;;;;;;;1.73;1.40;;;;;;;7.28;77.24;99582.97;5011975;28;20207;-63
2023/04/26 01:16:45;;;;;;;2.00;1.80;;;;;;;7.34;77.72;99590.63;5010282;28;20199;-60
2023/04/26 01:19:14;;;;;;;2.63;1.60;;;;;;;7.36;77.18;99589.72;5010832;28;20207;-61
2023/04/26 01:21:43;;;;;;;2.73;1.40;;;;;;;7.38;76.16;99590.59;5011696;28;20204;-60
2023/04/26 01:24:16;;;;;;;2.47;1.80;;;;;;;7.41;76.63;99592.28;5010302;28;20239;-60
2023/04/26 01:26:44;;;;;;;1.83;1.60;;;;;;;7.41;76.26;99592.28;5010578;28;20207;-60
2023/04/26 01:29:17;;;;;;;2.30;1.50;;;;;;;7.42;76.25;99593.97;5012199;28;20207;-60
2023/04/26 01:31:45;;;;;;;3.13;1.83;;;;;;;7.42;76.49;99591.41;5010504;28;20215;-60
2023/04/26 01:34:13;;;;;;;2.33;1.50;;;;;;;7.43;75.92;99598.25;5009244;28;20277;-61
2023/04/26 01:36:42;;;;;;;3.83;1.97;;;;;;;7.42;75.92;99594.81;5011849;28;20211;-61
2023/04/26 01:39:10;;;;;;;2.50;1.63;;;;;;;7.40;76.10;99591.44;5008635;28;20208;-62
2023/04/26 01:41:39;;;;;;;2.20;2.00;;;;;;;7.43;76.07;99596.53;5008982;28;20650;-61
2023/04/26 01:44:07;;;;;;;2.40;1.83;;;;;;;7.45;76.09;99594.81;5010367;28;20251;-60
2023/04/26 01:46:35;;;;;;;2.70;2.10;;;;;;;7.47;75.91;99602.47;5010273;28;20701;-61
2023/04/26 01:49:03;;;;;;;3.67;1.97;;;;;;;7.51;76.84;99593.91;5011501;28;20290;-62
2023/04/26 01:51:31;;;;;;;4.00;2.23;;;;;;;7.55;76.88;99590.50;5009069;28;20234;-60
2023/04/26 01:53:59;;;;;;;3.13;2.40;;;;;;;7.62;76.24;99592.16;5010263;28;20283;-61
2023/04/26 01:56:27;;;;;;;2.93;2.10;;;;;;;7.66;76.63;99598.13;5007363;28;20326;-62
2023/04/26 01:58:56;;;;;;;8.20;2.40;;;;;;;7.67;76.36;99590.41;5007963;28;20226;-62
2023/04/26 02:01:24;;;;;;;4.00;2.17;;;;;;;7.73;75.92;99595.50;5006941;28;20689;-61
2023/04/26 02:03:52;;;;;;;4.23;2.27;;;;;;;7.75;76.26;99593.75;5010010;28;20265;-62
2023/04/26 02:06:21;;;;;;;2.93;2.10;;;;;;;7.74;76.40;99592.06;5007605;28;20243;-61
2023/04/26 02:08:49;;;;;;;3.40;2.20;;;;;;;7.75;76.24;99587.78;5010319;28;20619;-60
2023/04/26 02:11:17;;;;;;;2.03;1.83;;;;;;;7.78;76.57;99599.72;5011363;28;20223;-60
2023/04/26 02:13:45;;;;;;;4.63;2.20;;;;;;;7.75;76.44;99598.88;5010497;28;20212;-60
2023/04/26 02:16:15;;;;;;;3.30;1.83;;;;;;;7.70;76.66;99594.66;5008580;28;20238;-65
2023/04/26 02:18:44;;;;;;;3.10;1.83;;;;;;;7.63;76.54;99596.41;5011518;28;20203;-62
2023/04/26 02:21:12;;;;;;;2.23;1.97;;;;;;;7.62;76.92;99606.66;5009099;28;20639;-63
2023/04/26 02:23:40;;;;;;;3.17;2.30;;;;;;;7.64;76.41;99604.94;5013925;28;20238;-61
2023/04/26 02:26:08;;;;;;;2.00;1.80;;;;;;;7.65;77.38;99597.22;5009945;28;20735;-62
2023/04/26 02:28:36;;;;;;;2.07;1.83;;;;;;;7.66;76.18;99604.09;5011083;28;20258;-62
2023/04/26 02:31:04;;;;;;;2.87;2.03;;;;;;;7.68;76.92;99604.06;5011130;28;20203;-60
2023/04/26 02:33:34;;;;;;;2.13;1.93;;;;;;;7.69;77.02;99603.19;5009250;28;20211;-60
2023/04/26 02:36:04;;;;;;;2.20;2.00;;;;;;;7.69;77.32;99598.91;5010815;28;20199;-60
2023/04/26 02:38:33;;;;;;;2.60;2.03;;;;;;;7.69;77.08;99598.91;5008089;28;20662;-62
2023/04/26 02:41:02;;;;;;;4.47;1.93;;;;;;;7.71;77.58;99604.91;5010598;28;20289;-63
2023/04/26 02:43:30;;;;;;;4.40;1.90;;;;;;;7.71;77.30;99606.63;5008533;28;20257;-61
2023/04/26 02:46:00;;;;;;;4.23;1.83;;;;;;;7.71;77.56;99599.78;5009368;28;20587;-61
2023/04/26 02:48:28;;;;;;;3.10;1.83;;;;;;;7.72;77.03;99613.44;5008048;28;20207;-62
2023/04/26 02:50:57;;;;;;;2.30;1.70;;;;;;;7.69;76.36;99606.59;5005001;28;20701;-61
2023/04/26 02:53:25;;;;;;;2.90;2.17;;;;;;;7.69;76.55;99606.59;5010142;28;20203;-62
2023/04/26 02:55:53;;;;;;;4.17;1.93;;;;;;;7.65;76.51;99602.38;5007605;28;20665;-62
2023/04/26 02:58:21;;;;;;;5.00;2.27;;;;;;;7.65;76.58;99607.50;5005755;28;22965;-60
2023/04/26 03:00:49;;;;;;;3.27;2.10;;;;;;;7.65;76.93;99604.09;5004908;28;20273;-61
2023/04/26 03:03:17;;;;;;;5.90;2.63;;;;;;;7.66;76.24;99600.69;5008086;28;20210;-60
2023/04/26 03:05:45;;;;;;;4.70;2.40;;;;;;;7.64;75.66;99600.66;5014540;28;20219;-63
2023/04/26 03:08:14;;;;;;;5.53;3.10;;;;;;;7.59;75.70;99610.13;5008764;28;20203;-60
2023/04/26 03:10:44;;;;;;;4.97;3.03;;;;;;;7.53;75.71;99601.59;5000205;28;20218;-64
2023/04/26 03:13:12;;;;;;;5.20;3.50;;;;;;;7.50;75.45;99613.56;5010918;28;20199;-63
2023/04/26 03:15:44;;;;;;;9.00;3.47;;;;;;;7.45;75.16;99611.91;5007791;28;20337;-62
2023/04/26 03:18:12;;;;;;;7.10;3.43;;;;;;;7.41;75.15;99605.09;5008992;28;20206;-62
2023/04/26 03:20:40;;;;;;;7.77;3.60;;;;;;;7.40;74.45;99606.81;5009735;28;20210;-64
2023/04/26 03:23:08;;;;;;;8.03;3.83;;;;;;;7.32;73.89;99612.81;5008182;28;20709;-60
2023/04/26 03:25:40;;;;;;;10.53;4.23;;;;;;;7.29;74.32;99600.03;4999766;28;20702;-61
2023/04/26 03:28:08;;;;;;;6.30;3.67;;;;;;;7.21;72.83;99610.31;5008783;28;20273;-60
2023/04/26 03:30:35;;;;;;;9.67;4.17;;;;;;;7.17;73.57;99614.59;5009236;28;20261;-61
2023/04/26 03:33:03;;;;;;;9.67;4.00;;;;;;;7.15;73.34;99607.81;5004218;28;20207;-60
2023/04/26 03:35:31;;;;;;;6.67;3.93;;;;;;;7.12;72.00;99613.78;5006222;28;20554;-61
2023/04/26 03:37:59;;;;;;;7.90;3.77;;;;;;;7.04;72.16;99618.09;5007854;28;20237;-62
2023/04/26 03:40:27;;;;;;;7.30;4.20;;;;;;;6.96;72.47;99618.13;5010252;28;20674;-62
2023/04/26 03:42:56;;;;;;;13.40;4.20;;;;;;;6.88;71.40;99627.53;5007277;28;20203;-61
2023/04/26 03:45:25;;;;;;;11.33;4.20;;;;;;;6.82;71.90;99624.16;5007174;28;20678;-59
2023/04/26 03:47:53;;;;;;;8.17;4.33;;;;;;;6.77;72.30;99635.28;5008648;28;20203;-60
2023/04/26 03:50:22;;;;;;;9.10;4.00;;;;;;;6.76;71.92;99633.53;5008087;28;20207;-62
2023/04/26 03:52:50;;;;;;;4.77;3.70;;;;;;;6.75;71.17;99639.53;5009286;28;20720;-60
2023/04/26 03:55:18;;;;;;;9.10;4.03;;;;;;;6.71;71.66;99630.16;5011036;28;20199;-62
2023/04/26 03:57:45;;;;;;;9.40;3.57;;;;;;;6.72;71.74;99631.00;5008210;28;20211;-62
2023/04/26 04:00:15;;;;;;;10.47;3.87;;;;;;;6.71;71.69;99639.56;5010765;28;20281;-60
2023/04/26 04:02:44;;;;;;;6.73;3.83;;;;;;;6.68;71.18;99627.59;5008441;28;20566;-60
2023/04/26 04:05:12;;;;;;;9.47;4.23;;;;;;;6.70;71.18;99636.13;5008003;28;20199;-60
2023/04/26 04:07:40;;;;;;;8.93;3.50;;;;;;;6.65;70.36;99639.56;5009842;28;20366;-61
2023/04/26 04:10:10;;;;;;;9.33;4.03;;;;;;;6.61;70.57;99643.81;5012401;28;20211;-64
2023/04/26 04:12:38;;;;;;;7.27;3.73;;;;;;;6.61;70.74;99642.97;5010793;28;20215;-60
2023/04/26 04:15:07;;;;;;;10.20;4.17;;;;;;;6.62;71.17;99642.97;5012479;28;20199;-60
2023/04/26 04:17:36;;;;;;;11.70;4.13;;;;;;;6.61;69.79;99641.25;5007635;28;20605;-61
2023/04/26 04:20:07;;;;;;;7.63;3.57;;;;;;;6.62;69.49;99642.97;5004287;28;20211;-60
2023/04/26 04:22:35;;;;;;;8.63;4.33;;;;;;;6.64;69.51;99646.38;5013780;28;20208;-61
2023/04/26 04:25:04;;;;;;;4.90;3.57;;;;;;;6.70;68.78;99650.63;5010096;28;20238;-62
2023/04/26 04:27:32;;;;;;;4.57;3.80;;;;;;;6.76;69.05;99642.94;5012715;28;20204;-62
2023/04/26 04:30:02;;;;;;;6.63;3.87;;;;;;;6.88;69.24;99639.47;5011242;28;20269;-62
2023/04/26 04:32:31;;;;;;;9.47;4.53;;;;;;;7.03;69.41;99641.97;5005480;28;20736;-63
2023/04/26 04:35:01;;;;;;;7.77;4.23;;;;;;;7.15;68.83;99644.53;5011788;28;20217;-60
2023/04/26 04:37:32;;;;;;;8.50;4.57;;;;;;;7.30;68.55;99647.88;5007984;28;20191;-60
2023/04/26 04:40:00;;;;;;;11.33;4.87;;;;;;;7.39;68.17;99642.69;5004842;28;20571;-62
2023/04/26 04:42:31;;;;;;;10.33;4.57;;;;;;;7.47;67.07;99656.31;5009401;28;20207;-61
2023/04/26 04:44:59;;;;;;;8.70;3.80;;;;;;;7.51;67.21;99658.00;5004217;28;20199;-60
2023/04/26 04:47:27;;;;;;;9.20;3.90;;;;;;;7.53;66.76;99655.44;5006449;28;20742;-60
2023/04/26 04:49:55;;;;;;;9.13;3.80;;;;;;;7.57;67.73;99662.25;5006770;28;20294;-61
2023/04/26 04:52:24;;;;;;;8.87;3.90;;;;;;;7.66;66.52;99654.53;5009765;28;20215;-62
2023/04/26 04:54:52;;;;;;;11.17;4.50;;;;;;;7.70;66.11;99662.19;5007909;28;20267;-60
2023/04/26 04:57:20;;;;;;;6.87;3.77;;;;;;;7.77;66.53;99659.56;5009827;28;20231;-60
2023/04/26 04:59:48;;;;;;;7.83;4.17;;;;;;;7.87;65.73;99668.91;5012018;28;20242;-60
2023/04/26 05:02:16;;;;;;;8.43;4.00;;;;;;;7.98;66.25;99673.09;5009061;28;20334;-60
2023/04/26 05:04:44;;;;;;;8.30;4.13;;;;;;;8.04;65.70;99669.66;5005021;28;20208;-64
2023/04/26 05:07:14;;;;;;;10.07;3.97;;;;;;;7.88;64.05;99675.72;5008954;28;20215;-61
2023/04/26 05:09:44;;;;;;;9.73;4.60;;;;;;;7.78;65.26;99679.25;5009216;28;20213;-61
2023/04/26 05:12:12;;;;;;;11.57;4.03;;;;;;;7.86;65.63;99682.59;5010184;28;20211;-65
2023/04/26 05:14:40;;;;;;;8.67;4.20;;;;;;;8.04;64.67;99682.47;5005617;28;20211;-61
2023/04/26 05:17:08;;;;;;;6.53;3.77;;;;;;;8.20;62.74;99678.06;5006541;28;20692;-61
2023/04/26 05:19:36;;;;;;;8.73;4.00;;;;;;;8.35;62.55;99683.06;5010097;28;20218;-63
2023/04/26 05:22:04;;;;;;;13.27;4.20;;;;;;;8.47;61.55;99687.31;5012514;28;20211;-61
2023/04/26 05:24:32;;;;;;;9.60;3.83;;;;;;;8.62;61.24;99694.03;5010136;28;20765;-61
2023/04/26 05:27:04;;;;;;;13.00;4.13;;;;;;;8.59;60.13;99682.06;5010604;28;20247;-62
2023/04/26 05:29:32;;;;;;;7.10;3.77;;;;;;;8.53;59.37;99692.38;5009913;28;20573;-62
2023/04/26 05:32:00;;;;;;;7.37;3.60;;;;;;;8.92;60.50;99690.28;5006090;28;20682;-61
2023/04/26 05:34:28;;;;;;;8.83;3.37;;;;;;;9.72;57.63;99697.03;5010760;28;20722;-63
2023/04/26 05:36:55;;;;;;;7.77;3.50;;;;;;;10.33;56.42;99691.00;5001006;28;20247;-63
2023/04/26 05:39:23;;;;;;;9.73;3.57;;;;;;;10.87;54.29;99696.09;5002102;28;20994;-64
2023/04/26 05:41:52;;;;;;;3.90;3.10;;;;;;;11.52;52.16;99696.50;5007799;28;20203;-60
2023/04/26 05:44:21;;;;;;;6.17;3.20;;;;;;;12.15;51.27;99694.28;5002659;28;20235;-61
2023/04/26 05:46:49;;;;;;;8.07;3.70;;;;;;;12.78;48.12;99694.44;5003999;28;20211;-63
2023/04/26 05:49:16;;;;;;;7.70;3.77;;;;;;;13.34;46.45;99691.22;5005557;28;20309;-61
2023/04/26 05:51:44;;;;;;;6.37;3.77;;;;;;;14.04;45.31;99679.66;5005168;28;20849;-60
2023/04/26 05:54:12;;;;;;;6.60;3.20;;;;;;;14.96;44.37;99683.47;5003211;28;20277;-61
2023/04/26 05:56:40;;;;;;;7.70;3.00;;;;;;;15.88;41.25;99680.06;5007922;28;20207;-61
2023/04/26 05:59:08;;;;;;;7.13;3.50;;;;;;;16.73;39.52;99685.28;5005742;28;20231;-64
2023/04/26 06:01:37;;;;;;;6.30;3.38;;;;;;;17.65;36.90;99686.44;5007884;28;20203;-64
2023/04/26 06:04:05;;;;;;;7.13;3.22;;;;;;;18.06;35.75;99675.84;5008620;28;20215;-63
2023/04/26 06:06:34;;;;;;;9.57;3.25;;;;;;;18.24;34.46;99677.56;5001676;28;20215;-63
2023/04/26 06:09:03;;;;;;;5.97;3.05;;;;;;;18.48;33.61;99682.47;5010169;28;20685;-64
2023/04/26 06:11:31;;;;;;;5.10;2.88;;;;;;;18.95;34.03;99674.03;5008826;28;20203;-61
2023/04/26 06:13:58;;;;;;;6.30;2.88;;;;;;;19.05;30.62;99678.69;5012119;28;20203;-63
2023/04/26 06:16:26;;;;;;;5.38;2.60;;;;;;;18.67;32.39;99672.81;5008898;28;20207;-60
2023/04/26 06:18:56;;;;;;;6.28;2.60;;;;;;;18.95;32.11;99681.84;5004996;28;20294;-60
2023/04/26 06:21:23;;;;;;;4.57;2.55;;;;;;;19.18;31.16;99676.25;5010471;28;20199;-63
2023/04/26 06:23:51;;;;;;;8.77;2.95;;;;;;;19.65;31.87;99683.34;5008969;28;20277;-60
2023/04/26 06:26:19;;;;;;;8.20;2.60;;;;;;;20.21;30.57;99683.72;5010215;28;20282;-59
2023/04/26 06:28:47;;;;;;;5.82;2.72;;;;;;;19.92;29.21;99685.34;5008994;28;20235;-63
2023/04/26 06:31:15;;;;;;;6.60;2.47;;;;;;;19.80;30.39;99679.03;5010110;28;20720;-60
2023/04/26 06:33:43;;;;;;;5.78;2.97;;;;;;;20.02;29.30;99676.06;5010620;28;20222;-59
2023/04/26 06:36:13;;;;;;;6.07;2.78;;;;;;;20.10;29.53;99676.47;5009819;28;20655;-58
2023/04/26 06:38:40;;;;;;;6.85;2.80;;;;;;;20.25;29.06;99678.25;5002715;28;20249;-61
2023/04/26 06:41:08;;;;;;;5.10;2.55;;;;;;;19.82;28.57;99687.66;4999075;28;20662;-58
2023/04/26 06:43:36;;;;;;;8.30;2.72;;;;;;;19.41;29.47;99689.88;5001511;28;20242;-60
2023/04/26 06:46:04;;;;;;;7.43;2.25;;;;;;;19.44;30.15;99693.19;4992475;28;20741;-70
2023/04/26 06:48:32;;;;;;;4.22;2.70;;;;;;;19.63;29.70;99690.44;4997342;28;20220;-61
2023/04/26 06:51:05;;;;;;;6.47;2.35;;;;;;;19.38;30.67;99695.28;4999008;28;20211;-59
2023/04/26 06:53:34;;;;;;;5.07;2.58;;;;;;;19.54;30.00;99690.91;5005716;28;20236;-60
2023/04/26 06:56:02;;;;;;;5.95;2.50;;;;;;;20.04;29.50;99687.31;5009527;28;20650;-61
2023/04/26 06:58:30;;;;;;;5.78;2.33;;;;;;;18.78;29.39;99685.34;5008965;28;20199;-62
2023/04/26 07:01:02;;;;;;;4.30;2.13;;;;;;;18.42;30.64;99688.00;4998136;28;20309;-62
2023/04/26 07:03:31;;;;;;;5.80;2.30;;;;;;;18.96;29.78;99688.75;5003233;28;20674;-60
2023/04/26 07:05:59;;;;;;;6.78;2.53;;;;;;;19.04;28.17;99686.59;5005408;28;20750;-59
2023/04/26 07:08:27;;;;;;;6.35;1.98;;;;;;;19.00;28.05;99692.88;5008866;28;20223;-62
2023/04/26 07:10:56;;;;;;;6.53;2.08;;;;;;;18.99;28.07;99694.66;5006761;28;20203;-61
2023/04/26 07:13:24;;;;;;;6.13;2.47;;;;;;;18.60;28.24;99702.75;5010602;28;20218;-65
2023/04/26 07:15:52;;;;;;;3.38;1.85;;;;;;;18.88;28.67;99691.75;5007364;28;20203;-62
2023/04/26 07:18:20;;;;;;;6.75;2.30;;;;;;;19.39;28.31;99696.94;5009709;28;20203;-61
2023/04/26 07:20:48;;;;;;;5.13;2.15;;;;;;;19.58;27.59;99704.66;5009298;28;20685;-62
2023/04/26 07:23:16;;;;;;;4.28;1.80;;;;;;;18.74;27.90;99704.66;5009704;28;20246;-67
2023/04/26 07:25:44;;;;;;;4.82;2.35;;;;;;;18.33;28.32;99703.16;5009462;28;20615;-62
2023/04/26 07:28:14;;;;;;;6.45;2.15;;;;;;;18.67;28.46;99703.25;5007840;28;20219;-63
2023/04/26 07:30:42;;;;;;;3.88;1.55;;;;;;;19.02;27.21;99698.88;5010381;28;20850;-62
2023/04/26 07:33:10;;;;;;;4.88;1.60;;;;;;;18.94;27.26;99699.28;5007237;28;20208;-66
2023/04/26 07:35:38;;;;;;;4.80;2.33;;;;;;;19.01;27.20;99702.44;5011876;28;20222;-62
2023/04/26 07:38:06;;;;;;;8.23;1.95;;;;;;;19.14;27.68;99697.41;5011096;28;20564;-61
2023/04/26 07:40:34;;;;;;;5.53;2.28;;;;;;;18.90;28.28;99705.59;5012907;28;20208;-65
2023/04/26 07:43:02;;;;;;;3.67;1.80;;;;;;;18.90;28.32;99704.75;5009905;28;20334;-62
2023/04/26 07:45:32;;;;;;;7.35;1.90;;;;;;;19.22;28.11;99717.00;5004527;28;20207;-61
2023/04/26 07:48:00;;;;;;;3.42;1.58;;;;;;;18.49;27.92;99710.25;5010396;28;20257;-64
2023/04/26 07:50:28;;;;;;;7.20;1.65;;;;;;;17.16;29.99;99722.50;5012814;28;20211;-60
2023/04/26 07:52:56;;;;;;;4.53;1.85;;;;;;;15.58;32.39;99733.19;5010910;28;21058;-71
2023/04/26 07:55:24;;;;;;;4.53;1.80;;;;;;;14.55;36.77;99722.94;5010538;28;20698;-68
2023/04/26 07:57:52;;;;;;;5.75;2.13;;;;;;;13.84;37.20;99739.81;5012070;28;20211;-67
2023/04/26 08:00:21;;;;;;;4.70;1.75;;;;;;;13.24;37.86;99744.94;5010151;28;20199;-69
2023/04/26 08:02:50;;;;;;;4.30;1.70;;;;;;;13.89;37.31;99738.78;5011534;28;20690;-67
2023/04/26 08:05:19;;;;;;;5.82;1.98;;;;;;;14.79;33.89;99745.44;5008238;28;20616;-64
2023/04/26 08:07:47;;;;;;;4.13;1.98;;;;;;;14.45;34.08;99730.97;5014117;28;20281;-68
2023/04/26 08:10:15;;;;;;;4.05;1.52;;;;;;;13.78;36.03;99740.84;5010700;28;20597;-65
2023/04/26 08:12:45;;;;;;;3.00;1.37;;;;;;;13.14;36.90;99747.78;5011896;28;20624;-68
2023/04/26 08:15:13;;;;;;;7.00;2.10;;;;;;;12.47;38.51;99752.94;5009858;28;20290;-61
2023/04/26 08:17:41;;;;;;;3.07;1.70;;;;;;;12.18;39.40;99751.03;5007530;28;20658;-68
2023/04/26 08:20:11;;;;;;;4.33;1.90;;;;;;;12.49;38.77;99754.63;5010269;28;20209;-66
2023/04/26 08:22:40;;;;;;;7.53;2.07;;;;;;;12.57;38.64;99752.69;5013714;28;20210;-66
2023/04/26 08:25:08;;;;;;;3.97;1.83;;;;;;;12.32;38.89;99746.41;5013995;28;20580;-66
2023/04/26 08:27:36;;;;;;;4.30;1.97;;;;;;;12.17;39.74;99751.94;5012124;28;20654;-65
2023/04/26 08:30:06;;;;;;;4.87;2.07;;;;;;;12.86;39.10;99753.69;5012065;28;20203;-67
2023/04/26 08:32:34;;;;;;;4.23;1.90;;;;;;;13.82;37.94;99739.88;5009085;28;20204;-68
2023/04/26 08:35:02;;;;;;;3.43;1.97;;;;;;;14.88;35.40;99737.38;5011476;28;20322;-64
2023/04/26 08:37:31;;;;;;;3.03;1.83;;;;;;;14.79;35.20;99737.66;5006516;28;20631;-67
2023/04/26 08:39:59;;;;;;;7.60;2.00;;;;;;;14.17;35.48;99743.97;5004762;28;20682;-65
2023/04/26 08:42:28;;;;;;;3.40;1.70;;;;;;;13.37;35.70;99757.56;5010408;28;20262;-63
2023/04/26 08:45:00;;;;;;;3.40;1.87;;;;;;;12.51;38.16;99763.16;5004656;28;20208;-61
2023/04/26 08:47:34;;;;;;;3.33;1.90;;;;;;;11.79;40.06;99751.03;5011483;28;20262;-61
2023/04/26 08:50:03;;;;;;;4.23;1.90;;;;;;;11.24;41.81;99763.28;5006865;28;20646;-63
2023/04/26 08:52:35;;;;;;;3.53;1.90;;;;;;;10.97;42.46;99771.50;5006614;28;20580;-62
2023/04/26 08:55:05;;;;;;;5.67;2.07;;;;;;;10.91;43.04;99763.91;5005733;28;20301;-65
2023/04/26 08:57:33;;;;;;;8.57;2.50;;;;;;;11.18;42.35;99767.69;5009620;28;20203;-62
2023/04/26 09:00:04;;;;;;;5.70;2.00;;;;;;;11.31;42.27;99770.03;5009183;28;20548;-61
2023/04/26 09:02:32;;;;;;;3.83;2.03;;;;;;;11.30;41.44;99770.91;5005653;28;20207;-63
2023/04/26 09:05:01;;;;;;;6.60;1.93;;;;;;;11.16;41.03;99772.03;5005864;28;20559;-63
2023/04/26 09:07:32;;;;;;;6.83;1.60;;;;;;;10.96;42.08;99773.25;5011777;28;20207;-62
2023/04/26 09:10:05;;;;;;;5.97;2.03;;;;;;;10.75;42.53;99773.59;5009035;28;20212;-65
2023/04/26 09:12:33;;;;;;;3.30;1.60;;;;;;;10.66;43.46;99784.91;5008744;28;20211;-63
2023/04/26 09:15:01;;;;;;;4.47;1.43;;;;;;;10.61;44.25;99786.72;5005529;28;20215;-65
2023/04/26 09:17:31;;;;;;;5.47;2.17;;;;;;;10.52;44.89;99787.69;5011478;28;20257;-64
2023/04/26 09:20:00;;;;;;;10.10;1.90;;;;;;;10.42;44.99;99791.31;5010038;28;20322;-63
2023/04/26 09:22:30;;;;;;;4.50;1.30;;;;;;;10.33;44.66;99783.72;5010538;28;20662;-63
2023/04/26 09:24:58;;;;;;;5.03;1.40;;;;;;;10.17;44.37;99790.78;5007756;28;20258;-62
2023/04/26 09:27:34;;;;;;;4.13;1.50;;;;;;;9.92;44.28;99790.25;5006659;28;20215;-64
2023/04/26 09:30:09;;;;;;;3.60;2.00;;;;;;;9.81;45.80;99802.41;5012707;28;20215;-63
2023/04/26 09:32:45;;;;;;;4.67;1.70;;;;;;;9.79;45.52;99799.00;5007642;28;20294;-63
2023/04/26 09:35:28;;;;;;;6.03;1.77;;;;;;;9.77;45.00;99800.75;5009971;28;20211;-64
2023/04/26 09:37:58;;;;;;;4.37;1.57;;;;;;;9.83;45.54;99806.69;5008833;28;20261;-63
2023/04/26 09:40:36;;;;;;;7.13;1.50;;;;;;;9.92;44.22;99805.69;5005381;28;20229;-65
2023/04/26 09:43:06;;;;;;;3.00;1.50;;;;;;;10.22;41.88;99795.88;5009884;28;20204;-66
2023/04/26 09:45:45;;;;;;;4.10;1.47;;;;;;;10.66;41.05;99799.53;5010504;28;20211;-65
2023/04/26 09:48:15;;;;;;;7.73;1.60;;;;;;;10.71;41.18;99803.72;5010356;28;20553;-68
2023/04/26 09:50:45;;;;;;;6.43;1.77;;;;;;;10.58;41.03;99802.22;5006649;28;20215;-65
2023/04/26 09:53:26;;;;;;;4.13;1.63;;;;;;;10.39;41.32;99805.09;5007752;28;20195;-64
2023/04/26 09:55:54;;;;;;;4.67;1.43;;;;;;;10.22;41.35;99808.72;5005779;28;20298;-64
2023/04/26 09:58:24;;;;;;;4.10;1.53;;;;;;;10.04;40.59;99804.69;5005759;28;20666;-66
2023/04/26 10:00:53;;;;;;;2.47;1.40;;;;;;;9.94;40.84;99809.09;5011267;28;20203;-64
2023/04/26 10:03:23;;;;;;;2.33;1.03;;;;;;;9.89;41.18;99806.56;5011034;28;20258;-63
2023/04/26 10:05:52;;;;;;;5.77;1.40;;;;;;;9.93;41.71;99809.97;5010443;28;20200;-64
2023/04/26 10:08:20;;;;;;;1.93;1.37;;;;;;;10.00;41.48;99806.44;5006049;28;20269;-63
2023/04/26 10:10:47;;;;;;;4.43;1.20;;;;;;;11.06;39.01;99800.56;5009977;28;20242;-65
2023/04/26 10:13:16;;;;;;;4.57;1.50;;;;;;;11.59;37.80;99809.03;5009775;28;20247;-65
2023/04/26 10:15:47;;;;;;;3.10;1.27;;;;;;;11.56;36.18;99800.50;5011676;28;20206;-65
2023/04/26 10:18:16;;;;;;;4.27;1.30;;;;;;;11.19;37.46;99810.66;5011066;28;20211;-68
2023/04/26 10:20:48;;;;;;;4.63;1.67;;;;;;;10.78;39.12;99807.06;5010951;28;20241;-66
2023/04/26 10:23:20;;;;;;;4.67;2.03;;;;;;;10.39;40.21;99811.97;5006905;28;20648;-64
2023/04/26 10:25:49;;;;;;;5.27;1.47;;;;;;;10.11;41.67;99814.88;5011787;28;20693;-64
2023/04/26 10:28:17;;;;;;;4.83;1.20;;;;;;;10.06;41.37;99815.81;5010819;28;20219;-65
2023/04/26 10:30:57;;;;;;;4.30;1.30;;;;;;;10.33;41.92;99812.03;5008457;28;20226;-64
2023/04/26 10:33:25;;;;;;;5.87;1.60;;;;;;;10.46;40.24;99808.44;5006070;28;20211;-65
2023/04/26 10:36:19;;;;;;;3.17;1.40;;;;;;;10.45;40.23;99821.31;5007754;28;20199;-64
2023/04/26 10:39:17;;;;;;;3.63;1.40;;;;;;;10.32;39.01;99820.66;5006948;28;20294;-64
2023/04/26 10:41:45;;;;;;;9.17;1.83;;;;;;;10.16;39.36;99831.13;5006716;28;20211;-66
2023/04/26 10:44:39;;;;;;;3.67;1.40;;;;;;;10.05;40.01;99833.00;5006467;28;20231;-65
2023/04/26 10:47:22;;;;;;;1.37;1.00;;;;;;;9.89;39.93;99831.47;5003537;28;20222;-64
2023/04/26 10:49:51;;;;;;;6.23;1.50;;;;;;;9.87;39.97;99836.66;5004634;28;20258;-69
2023/04/26 10:52:21;;;;;;;4.97;1.30;;;;;;;9.88;40.80;99834.91;5008755;28;20212;-66
2023/04/26 10:54:53;;;;;;;5.57;1.10;;;;;;;9.96;40.74;99838.25;5010747;28;20655;-65
2023/04/26 10:57:21;;;;;;;3.77;1.60;;;;;;;10.00;39.50;99827.03;5007989;28;20199;-64
2023/04/26 11:00:19;;;;;;;7.17;1.90;;;;;;;10.08;39.31;99830.34;5009410;28;20673;-64
2023/04/26 11:02:57;;;;;;;4.50;1.50;;;;;;;10.18;39.61;99833.66;5009795;28;20535;-65
2023/04/26 11:05:55;;;;;;;3.73;1.40;;;;;;;10.37;40.13;99824.84;5011281;28;20796;-65
2023/04/26 11:08:28;;;;;;;2.50;1.20;;;;;;;10.72;39.29;99832.94;5006125;28;20210;-67
2023/04/26 11:11:04;;;;;;;4.07;1.40;;;;;;;10.91;38.75;99834.34;5003744;28;20238;-66
2023/04/26 11:13:35;;;;;;;3.37;1.43;;;;;;;10.91;38.40;99836.06;5007066;28;20214;-65
2023/04/26 11:16:04;;;;;;;5.03;2.23;;;;;;;10.72;38.24;99831.22;5010906;28;20207;-67
2023/04/26 11:18:35;;;;;;;4.67;1.73;;;;;;;10.45;39.10;99837.59;5009262;28;20731;-65
2023/04/26 11:21:05;;;;;;;5.80;1.50;;;;;;;10.20;40.37;99849.97;5006310;28;21045;-67
2023/04/26 11:23:33;;;;;;;4.63;1.80;;;;;;;10.01;40.48;99853.63;5009994;28;20559;-64
2023/04/26 11:26:02;;;;;;;5.47;1.70;;;;;;;9.82;41.42;99853.00;5010384;28;20207;-67
2023/04/26 11:28:31;;;;;;;3.80;1.60;;;;;;;9.75;41.12;99854.78;5010519;28;20203;-65
2023/04/26 11:31:01;;;;;;;4.83;1.33;;;;;;;9.72;40.83;99870.28;5009510;28;20251;-64
2023/04/26 11:33:32;;;;;;;3.43;1.53;;;;;;;9.67;41.31;99869.44;5009545;28;20709;-64
2023/04/26 11:36:02;;;;;;;2.23;1.03;;;;;;;9.75;40.98;99859.06;5009949;28;20199;-65
2023/04/26 11:38:30;;;;;;;3.77;1.57;;;;;;;10.21;41.12;99869.69;5009027;28;20211;-65
2023/04/26 11:41:00;;;;;;;1.70;1.43;;;;;;;10.77;38.50;99851.75;5005171;28;20208;-66
2023/04/26 11:43:35;;;;;;;2.80;1.30;;;;;;;11.42;37.03;99844.63;5004440;28;20275;-71
2023/04/26 11:46:05;;;;;;;6.37;1.60;;;;;;;11.89;34.99;99844.63;5006444;28;20652;-65
2023/04/26 11:48:36;;;;;;;9.13;1.90;;;;;;;11.91;35.64;99846.31;5009874;28;20619;-64